Time;durP1;ratioP1;P1;durP2;ratioP2;P2;SDS_P1;SDS_P2;PMS_P1;PMS_P2;Temp;Humidity;BMP_temperature;BMP_pressure;BME280_temperature;BME280_humidity;BME280_pressure;Samples;Min_cycle;Max_cycle;Signal;HPM_P1;HPM_P2
2023/12/18 00:09:23;;;;;;;;;;;;;;;2.18;100.00;100521.22;436200;1255;125919;-68
2023/12/18 00:19:28;;;;;;;;;;;;;;;1.95;100.00;100507.56;435133;1251;125397;-68
2023/12/18 00:29:33;;;;;;;;;;;;;;;1.77;100.00;100489.66;434752;1251;126221;-68
2023/12/18 00:39:37;;;;;;;;;;;;;;;1.63;100.00;100486.56;436045;1251;126379;-68
2023/12/18 00:49:42;;;;;;;;;;;;;;;1.47;100.00;100491.77;436105;1251;126931;-67
2023/12/18 00:59:47;;;;;;;;;;;;;;;1.29;100.00;100498.87;437378;1251;125627;-68
2023/12/18 01:09:56;;;;;;;;;;;;;;;1.13;100.00;100494.73;435043;1251;126169;-67
2023/12/18 01:20:02;;;;;;;;;;;;;;;1.05;100.00;100478.60;436872;1251;127360;-68
2023/12/18 01:30:08;;;;;;;;;;;;;;;1.04;100.00;100459.13;436109;1251;125503;-68
2023/12/18 01:40:14;;;;;;;;;;;;;;;1.27;100.00;100450.77;437127;1254;126646;-68
2023/12/18 01:50:19;;;;;;;;;;;;;;;1.56;100.00;100448.52;435516;1251;127016;-68
2023/12/18 02:00:23;;;;;;;;;;;;;;;1.84;100.00;100450.90;437283;1255;125381;-68
2023/12/18 02:10:28;;;;;;;;;;;;;;;1.95;100.00;100446.25;435153;1254;126132;-69
2023/12/18 02:20:32;;;;;;;;;;;;;;;2.14;100.00;100440.95;435235;1255;125977;-68
2023/12/18 02:30:37;;;;;;;;;;;;;;;2.65;100.00;100425.25;435709;1251;125698;-68
2023/12/18 02:40:42;;;;;;;;;;;;;;;3.41;100.00;100409.27;436005;1251;126162;-68
2023/12/18 02:50:47;;;;;;;;;;;;;;;3.80;100.00;100411.36;435787;1251;126180;-69
2023/12/18 03:00:51;;;;;;;;;;;;;;;3.99;100.00;100411.29;435653;1251;125624;-68
2023/12/18 03:10:57;;;;;;;;;;;;;;;4.08;100.00;100415.73;436719;1251;126716;-69
2023/12/18 03:21:01;;;;;;;;;;;;;;;4.25;100.00;100418.98;435159;1256;125326;-68
2023/12/18 03:31:06;;;;;;;;;;;;;;;4.46;100.00;100420.55;435056;1254;125618;-67
2023/12/18 03:41:11;;;;;;;;;;;;;;;4.61;100.00;100411.65;434879;1251;127193;-67
2023/12/18 03:51:16;;;;;;;;;;;;;;;4.72;100.00;100412.94;434977;1255;125672;-68
2023/12/18 04:01:20;;;;;;;;;;;;;;;4.78;100.00;100416.42;435240;1255;125662;-67
2023/12/18 04:11:25;;;;;;;;;;;;;;;4.85;100.00;100416.60;434908;1251;133187;-68
2023/12/18 04:21:30;;;;;;;;;;;;;;;4.88;100.00;100418.59;434994;1255;126427;-68
2023/12/18 04:31:34;;;;;;;;;;;;;;;4.92;100.00;100425.08;435456;1251;125583;-68
2023/12/18 04:41:39;;;;;;;;;;;;;;;4.97;100.00;100427.53;435185;1253;126920;-67
2023/12/18 04:51:43;;;;;;;;;;;;;;;5.02;100.00;100426.03;435399;1255;125447;-69
2023/12/18 05:01:48;;;;;;;;;;;;;;;5.08;100.00;100435.77;436858;1251;126256;-67
2023/12/18 05:11:52;;;;;;;;;;;;;;;5.13;100.00;100430.77;436056;1254;125879;-67
2023/12/18 05:21:57;;;;;;;;;;;;;;;5.17;100.00;100432.71;435092;1253;126020;-68
2023/12/18 05:32:01;;;;;;;;;;;;;;;5.19;100.00;100430.41;435148;1255;126295;-68
2023/12/18 05:42:06;;;;;;;;;;;;;;;5.21;100.00;100433.65;435161;1252;125548;-67
2023/12/18 05:52:12;;;;;;;;;;;;;;;5.23;100.00;100431.87;435442;1251;125713;-68
2023/12/18 06:02:17;;;;;;;;;;;;;;;5.25;100.00;100431.12;435493;1253;126230;-68
2023/12/18 06:12:22;;;;;;;;;;;;;;;5.25;100.00;100434.59;435027;1251;125323;-68
2023/12/18 06:22:26;;;;;;;;;;;;;;;5.25;100.00;100426.60;435438;1251;126499;-69
2023/12/18 06:32:31;;;;;;;;;;;;;;;5.26;100.00;100426.59;437426;1253;125548;-68
2023/12/18 06:42:36;;;;;;;;;;;;;;;5.27;100.00;100442.01;435209;1251;128876;-68
2023/12/18 06:52:41;;;;;;;;;;;;;;;5.28;100.00;100442.13;434882;1252;126047;-69
2023/12/18 07:02:45;;;;;;;;;;;;;;;5.30;100.00;100440.16;434976;1254;126541;-67
2023/12/18 07:12:50;;;;;;;;;;;;;;;5.31;100.00;100447.63;435219;1254;126516;-67
2023/12/18 07:22:55;;;;;;;;;;;;;;;5.31;100.00;100452.64;434817;1253;126481;-67
2023/12/18 07:32:59;;;;;;;;;;;;;;;5.34;100.00;100456.90;435291;1254;126680;-68
2023/12/18 07:43:04;;;;;;;;;;;;;;;5.36;100.00;100453.73;435207;1254;125491;-68
2023/12/18 07:53:09;;;;;;;;;;;;;;;5.36;100.00;100468.48;435165;1252;126264;-68
2023/12/18 08:03:13;;;;;;;;;;;;;;;5.37;100.00;100480.60;435368;1255;127550;-68
2023/12/18 08:13:18;;;;;;;;;;;;;;;5.40;100.00;100495.82;436192;1255;126241;-69
2023/12/18 08:23:22;;;;;;;;;;;;;;;5.41;100.00;100487.94;435494;1254;125884;-68
2023/12/18 08:33:27;;;;;;;;;;;;;;;5.42;100.00;100488.95;435316;1256;126287;-67
2023/12/18 08:43:32;;;;;;;;;;;;;;;5.44;100.00;100494.48;435895;1255;125661;-67
2023/12/18 08:53:37;;;;;;;;;;;;;;;5.44;100.00;100496.89;435311;1254;125443;-68
2023/12/18 09:03:42;;;;;;;;;;;;;;;5.45;100.00;100482.10;435457;1256;126018;-67
2023/12/18 09:13:47;;;;;;;;;;;;;;;5.45;100.00;100475.53;436787;1255;126641;-67
2023/12/18 09:23:51;;;;;;;;;;;;;;;5.45;100.00;100477.43;435912;1256;125494;-69
2023/12/18 09:33:56;;;;;;;;;;;;;;;5.44;100.00;100468.94;434966;1256;125820;-67
2023/12/18 09:44:01;;;;;;;;;;;;;;;5.47;100.00;100476.14;436414;1253;125759;-67
2023/12/18 09:54:06;;;;;;;;;;;;;;;5.55;100.00;100466.91;437494;1254;125441;-68
2023/12/18 10:04:11;;;;;;;;;;;;;;;5.67;100.00;100457.34;435772;1254;126243;-69
2023/12/18 10:14:16;;;;;;;;;;;;;;;5.70;100.00;100453.08;435381;1254;125782;-69
2023/12/18 10:24:20;;;;;;;;;;;;;;;5.65;100.00;100443.15;435139;1251;125396;-67
2023/12/18 10:34:25;;;;;;;;;;;;;;;5.60;100.00;100440.52;435498;1256;125692;-67
2023/12/18 10:44:33;;;;;;;;;;;;;;;5.58;100.00;100442.15;435044;1256;126360;-68
2023/12/18 10:54:39;;;;;;;;;;;;;;;5.58;100.00;100429.13;435359;1254;126373;-67
2023/12/18 11:04:44;;;;;;;;;;;;;;;5.65;100.00;100428.92;435042;1255;125400;-68
2023/12/18 11:14:58;;;;;;;;;;;;;;;5.65;100.00;100420.76;436102;1255;125688;-68
2023/12/18 11:25:04;;;;;;;;;;;;;;;5.72;100.00;100421.77;435618;1254;125641;-68
2023/12/18 11:35:10;;;;;;;;;;;;;;;5.81;100.00;100432.94;435431;1256;126031;-67
2023/12/18 11:45:15;;;;;;;;;;;;;;;5.83;100.00;100444.91;435394;1254;125506;-68
2023/12/18 11:55:33;;;;;;;;;;;;;;;5.72;100.00;100430.09;435163;1253;125425;-67
2023/12/18 12:05:38;;;;;;;;;;;;;;;5.66;100.00;100447.64;434715;1255;126462;-70
2023/12/18 12:15:43;;;;;;;;;;;;;;;5.64;100.00;100444.77;434772;1254;126348;-67
2023/12/18 12:25:48;;;;;;;;;;;;;;;5.59;100.00;100449.21;435073;1254;125320;-68
2023/12/18 12:35:53;;;;;;;;;;;;;;;5.61;100.00;100461.16;434934;1256;125782;-68
2023/12/18 12:45:57;;;;;;;;;;;;;;;5.56;100.00;100462.70;435012;1256;126244;-67
2023/12/18 12:56:03;;;;;;;;;;;;;;;5.50;100.00;100462.70;434927;1255;125954;-67
2023/12/18 13:06:08;;;;;;;;;;;;;;;5.43;100.00;100460.45;435559;1256;125860;-68
2023/12/18 13:16:13;;;;;;;;;;;;;;;5.37;100.00;100457.88;435555;1256;127284;-68
2023/12/18 13:26:17;;;;;;;;;;;;;;;5.27;100.00;100457.95;434493;1256;126825;-62
2023/12/18 13:36:22;;;;;;;;;;;;;;;5.21;100.00;100459.16;434958;1256;125538;-65
2023/12/18 13:46:27;;;;;;;;;;;;;;;5.14;100.00;100457.11;435186;1251;125795;-65
2023/12/18 13:56:33;;;;;;;;;;;;;;;5.11;100.00;100459.45;435205;1257;125851;-71
2023/12/18 14:06:38;;;;;;;;;;;;;;;5.05;100.00;100461.86;434593;1257;126950;-68
2023/12/18 14:16:43;;;;;;;;;;;;;;;4.97;100.00;100474.89;434474;1257;125669;-67
2023/12/18 14:26:47;;;;;;;;;;;;;;;4.89;100.00;100473.73;434427;1256;126486;-64
2023/12/18 14:36:53;;;;;;;;;;;;;;;4.82;100.00;100469.77;436315;1256;125475;-63
2023/12/18 14:46:57;;;;;;;;;;;;;;;4.73;100.00;100466.33;436955;1256;126287;-64
2023/12/18 14:57:02;;;;;;;;;;;;;;;4.64;100.00;100466.05;434867;1257;126941;-63
2023/12/18 15:07:07;;;;;;;;;;;;;;;4.57;100.00;100464.64;437094;1251;126477;-71
2023/12/18 15:17:12;;;;;;;;;;;;;;;4.49;100.00;100458.79;435825;1256;126545;-65
2023/12/18 15:27:16;;;;;;;;;;;;;;;4.44;100.00;100465.31;434893;1251;125986;-65
2023/12/18 15:37:22;;;;;;;;;;;;;;;4.43;100.00;100459.45;435193;1251;125263;-66
2023/12/18 15:47:27;;;;;;;;;;;;;;;4.40;100.00;100451.04;437278;1251;125817;-65
2023/12/18 15:57:32;;;;;;;;;;;;;;;4.38;100.00;100451.95;435236;1254;126589;-65
2023/12/18 16:07:38;;;;;;;;;;;;;;;4.35;100.00;100447.85;435584;1255;127119;-65
2023/12/18 16:17:43;;;;;;;;;;;;;;;4.34;100.00;100457.06;434940;1251;126668;-65
2023/12/18 16:27:48;;;;;;;;;;;;;;;4.33;100.00;100449.82;435161;1257;125789;-66
2023/12/18 16:37:52;;;;;;;;;;;;;;;4.31;100.00;100438.60;435166;1256;126643;-66
2023/12/18 16:47:57;;;;;;;;;;;;;;;4.32;100.00;100428.16;435463;1251;126752;-66
2023/12/18 16:58:02;;;;;;;;;;;;;;;4.31;100.00;100419.35;435137;1251;126848;-66
2023/12/18 17:08:07;;;;;;;;;;;;;;;4.28;100.00;100415.61;435265;1251;126021;-67
2023/12/18 17:18:12;;;;;;;;;;;;;;;4.26;100.00;100404.75;436755;1251;125353;-63
2023/12/18 17:28:16;;;;;;;;;;;;;;;4.28;100.00;100388.39;435841;1251;126641;-62
2023/12/18 17:38:23;;;;;;;;;;;;;;;4.27;100.00;100374.73;435772;1254;125877;-63
2023/12/18 17:48:27;;;;;;;;;;;;;;;4.30;100.00;100373.27;434966;1251;125554;-63
2023/12/18 17:58:32;;;;;;;;;;;;;;;4.30;100.00;100368.95;435002;1251;126536;-63
2023/12/18 18:08:36;;;;;;;;;;;;;;;4.31;100.00;100368.55;435381;1251;125946;-63
2023/12/18 18:18:41;;;;;;;;;;;;;;;4.29;100.00;100351.27;435376;1251;126772;-64
2023/12/18 18:28:45;;;;;;;;;;;;;;;4.27;100.00;100342.67;435036;1251;126431;-63
2023/12/18 18:38:49;;;;;;;;;;;;;;;4.27;100.00;100352.37;435399;1254;126757;-62
2023/12/18 18:48:55;;;;;;;;;;;;;;;4.27;100.00;100350.29;435461;1256;126576;-63
2023/12/18 18:58:59;;;;;;;;;;;;;;;4.28;100.00;100342.83;435231;1251;126665;-64
2023/12/18 19:09:04;;;;;;;;;;;;;;;4.29;100.00;100332.04;435457;1251;126386;-64
2023/12/18 19:19:08;;;;;;;;;;;;;;;4.30;100.00;100324.39;436698;1251;125880;-64
2023/12/18 19:29:13;;;;;;;;;;;;;;;4.33;100.00;100313.20;435166;1254;125781;-63
2023/12/18 19:39:17;;;;;;;;;;;;;;;4.34;100.00;100298.27;434885;1251;127681;-64
2023/12/18 19:49:22;;;;;;;;;;;;;;;4.37;100.00;100278.10;434829;1251;126859;-64
2023/12/18 19:59:27;;;;;;;;;;;;;;;4.41;100.00;100265.14;434647;1251;125438;-65
2023/12/18 20:09:32;;;;;;;;;;;;;;;4.45;100.00;100249.95;435747;1253;125532;-66
2023/12/18 20:19:37;;;;;;;;;;;;;;;4.50;100.00;100242.36;435603;1251;126742;-64
2023/12/18 20:29:41;;;;;;;;;;;;;;;4.53;100.00;100224.25;434947;1251;126293;-63
2023/12/18 20:39:46;;;;;;;;;;;;;;;4.49;100.00;100210.31;435001;1251;127260;-64
2023/12/18 20:49:51;;;;;;;;;;;;;;;4.49;100.00;100210.67;436324;1251;125381;-64
2023/12/18 20:59:56;;;;;;;;;;;;;;;4.52;100.00;100194.80;435371;1251;128105;-63
2023/12/18 21:10:20;;;;;;;;;;;;;;;4.51;100.00;100169.70;435088;1253;127338;-64
2023/12/18 21:20:25;;;;;;;;;;;;;;;4.48;100.00;100155.23;435917;1256;125861;-64
2023/12/18 21:30:29;;;;;;;;;;;;;;;4.44;100.00;100161.92;435455;1255;126615;-64
2023/12/18 21:40:35;;;;;;;;;;;;;;;4.44;100.00;100162.61;436006;1253;125408;-64
2023/12/18 21:50:40;;;;;;;;;;;;;;;4.44;100.00;100160.02;435160;1256;125805;-64
2023/12/18 22:00:44;;;;;;;;;;;;;;;4.45;100.00;100149.77;435345;1255;126829;-64
2023/12/18 22:10:49;;;;;;;;;;;;;;;4.42;100.00;100133.73;434976;1255;125856;-64
2023/12/18 22:20:54;;;;;;;;;;;;;;;4.37;100.00;100097.64;434904;1251;125435;-64
2023/12/18 22:31:11;;;;;;;;;;;;;;;4.34;100.00;100085.95;434978;1255;126424;-63
2023/12/18 22:41:16;;;;;;;;;;;;;;;4.29;100.00;100077.77;434965;1253;125412;-64
2023/12/18 22:51:20;;;;;;;;;;;;;;;4.20;100.00;100065.55;435171;1255;126025;-64
2023/12/18 23:01:25;;;;;;;;;;;;;;;4.14;100.00;100044.42;435302;1256;128764;-64
2023/12/18 23:11:29;;;;;;;;;;;;;;;4.08;100.00;100060.38;434997;1251;126301;-64
2023/12/18 23:21:38;;;;;;;;;;;;;;;4.11;100.00;100064.63;434760;1255;126838;-63
2023/12/18 23:31:42;;;;;;;;;;;;;;;4.14;100.00;100067.30;435380;1255;125889;-63
2023/12/18 23:41:47;;;;;;;;;;;;;;;4.12;100.00;100052.63;435436;1256;126215;-64
2023/12/18 23:51:51;;;;;;;;;;;;;;;4.12;100.00;100022.31;434923;1256;125858;-63
